Time;durP1;ratioP1;P1;durP2;ratioP2;P2;SDS_P1;SDS_P2;PMS_P1;PMS_P2;Temp;Humidity;BMP_temperature;BMP_pressure;BME280_temperature;BME280_humidity;BME280_pressure;Samples;Min_cycle;Max_cycle;Signal;HPM_P1;HPM_P2
2023/12/23 00:01:45;;;;;;;1999.90;999.90;;;7.90;99.90;;;;;;5032466;28;20027;-71
2023/12/23 00:04:11;;;;;;;1999.90;999.90;;;7.90;99.90;;;;;;5038530;28;20118;-71
2023/12/23 00:06:37;;;;;;;1999.90;999.90;;;7.90;99.90;;;;;;5038373;28;20124;-71
2023/12/23 00:09:02;;;;;;;1999.90;999.90;;;7.90;99.90;;;;;;5033463;28;20029;-70
2023/12/23 00:11:28;;;;;;;1999.90;999.90;;;7.90;99.90;;;;;;5034082;28;20041;-72
2023/12/23 00:13:54;;;;;;;1999.90;999.90;;;7.90;99.90;;;;;;5032783;28;20017;-70
2023/12/23 00:16:19;;;;;;;1999.90;999.90;;;7.90;99.90;;;;;;5034395;28;20029;-70
2023/12/23 00:18:45;;;;;;;1999.90;999.90;;;7.90;99.90;;;;;;5035616;28;20021;-71
2023/12/23 00:21:11;;;;;;;1999.90;999.90;;;7.90;99.90;;;;;;5032225;28;20329;-73
2023/12/23 00:23:36;;;;;;;1999.90;999.90;;;7.90;99.90;;;;;;5031776;28;20025;-70
2023/12/23 00:26:02;;;;;;;1999.90;999.90;;;7.90;99.90;;;;;;5030494;28;20025;-71
2023/12/23 00:28:28;;;;;;;1999.90;999.90;;;7.90;99.90;;;;;;5035260;28;20073;-70
2023/12/23 00:30:54;;;;;;;1999.90;999.90;;;7.90;99.90;;;;;;5034860;28;20108;-70
2023/12/23 00:33:19;;;;;;;1999.90;999.90;;;7.90;99.90;;;;;;5034826;28;20040;-71
2023/12/23 00:35:45;;;;;;;1999.90;999.90;;;7.90;99.90;;;;;;5035570;28;20108;-71
2023/12/23 00:38:10;;;;;;;1999.90;999.90;;;7.90;99.90;;;;;;5034099;28;20129;-70
2023/12/23 00:40:36;;;;;;;1999.90;999.90;;;7.90;99.90;;;;;;5034648;28;20424;-70
2023/12/23 00:43:03;;;;;;;1999.90;999.90;;;7.90;99.90;;;;;;5034584;28;20093;-70
2023/12/23 00:45:29;;;;;;;;;;;7.90;99.90;;;;;;5035759;28;20036;-70
2023/12/23 00:47:54;;;;;;;1999.90;999.90;;;7.90;99.90;;;;;;5035458;28;19909;-71
2023/12/23 00:50:20;;;;;;;1999.90;999.90;;;7.90;99.90;;;;;;5034170;28;20108;-70
2023/12/23 00:52:46;;;;;;;1999.90;999.90;;;7.90;99.90;;;;;;5035014;28;20030;-70
2023/12/23 00:55:11;;;;;;;1999.90;999.90;;;7.90;99.90;;;;;;5035217;28;20104;-71
2023/12/23 00:57:37;;;;;;;1999.90;999.90;;;7.90;99.90;;;;;;5034117;28;20030;-70
2023/12/23 01:00:03;;;;;;;1999.90;999.90;;;7.90;99.90;;;;;;5035136;28;20028;-71
2023/12/23 01:02:29;;;;;;;1999.90;999.90;;;7.90;99.90;;;;;;5034309;28;20026;-71
2023/12/23 01:04:54;;;;;;;1999.90;999.90;;;7.90;99.90;;;;;;5034693;28;20278;-70
2023/12/23 01:07:21;;;;;;;1999.90;999.90;;;7.90;99.90;;;;;;5034553;28;20029;-71
2023/12/23 01:09:46;;;;;;;1999.90;999.90;;;7.90;99.90;;;;;;5034216;28;20037;-70
2023/12/23 01:12:12;;;;;;;1999.90;999.90;;;7.90;99.90;;;;;;5032073;28;20095;-70
2023/12/23 01:14:38;;;;;;;1999.90;999.90;;;7.80;99.90;;;;;;5031123;28;20108;-70
2023/12/23 01:17:04;;;;;;;1999.90;999.90;;;7.80;99.90;;;;;;5034459;28;20053;-70
2023/12/23 01:19:29;;;;;;;1999.90;999.90;;;7.70;99.90;;;;;;5030766;28;20341;-70
2023/12/23 01:21:55;;;;;;;1999.90;999.90;;;7.70;99.90;;;;;;5028679;28;20025;-70
2023/12/23 01:24:21;;;;;;;1999.90;999.90;;;7.70;99.90;;;;;;5034735;28;20029;-70
2023/12/23 01:26:46;;;;;;;1999.90;999.90;;;7.70;99.90;;;;;;5033889;28;20029;-70
2023/12/23 01:29:12;;;;;;;1999.90;999.90;;;7.60;99.90;;;;;;5025664;28;20104;-71
2023/12/23 01:31:38;;;;;;;1999.90;999.90;;;7.60;99.90;;;;;;5032531;28;20353;-71
2023/12/23 01:34:03;;;;;;;1999.90;999.90;;;7.60;99.90;;;;;;5034182;28;20032;-71
2023/12/23 01:36:29;;;;;;;1999.90;999.90;;;7.60;99.90;;;;;;5033143;28;20420;-71
2023/12/23 01:38:55;;;;;;;1999.90;999.90;;;7.60;99.90;;;;;;5027426;28;20018;-71
2023/12/23 01:41:20;;;;;;;1999.90;999.90;;;7.60;99.90;;;;;;5033001;28;20477;-71
2023/12/23 01:43:46;;;;;;;1999.90;999.90;;;7.60;99.90;;;;;;5033737;28;20021;-71
2023/12/23 01:46:12;;;;;;;1999.90;999.90;;;7.60;99.90;;;;;;5026243;28;20061;-71
2023/12/23 01:48:42;;;;;;;1999.90;999.90;;;7.60;99.90;;;;;;5024178;28;20029;-71
2023/12/23 01:51:09;;;;;;;1999.90;999.90;;;7.60;99.90;;;;;;5022399;28;20030;-71
2023/12/23 01:53:35;;;;;;;1999.90;999.90;;;7.60;99.90;;;;;;5033325;28;20438;-71
2023/12/23 01:56:01;;;;;;;1999.90;999.90;;;7.60;99.90;;;;;;5032577;28;20033;-71
2023/12/23 01:58:27;;;;;;;1999.90;999.90;;;7.60;99.90;;;;;;5033797;28;20040;-71
2023/12/23 02:00:53;;;;;;;1999.90;999.90;;;7.70;99.90;;;;;;5029487;28;20045;-70
2023/12/23 02:03:20;;;;;;;1999.90;999.90;;;7.70;99.90;;;;;;5033149;28;20267;-70
2023/12/23 02:05:46;;;;;;;1999.90;999.90;;;7.70;99.90;;;;;;5032282;28;20052;-71
2023/12/23 02:08:12;;;;;;;1999.90;999.90;;;7.70;99.90;;;;;;5032037;28;20167;-71
2023/12/23 02:10:39;;;;;;;1999.90;999.90;;;7.70;99.90;;;;;;5031136;28;20029;-71
2023/12/23 02:13:24;;;;;;;1999.90;999.90;;;7.70;99.90;;;;;;5031101;28;20102;-71
2023/12/23 02:15:51;;;;;;;1999.90;999.90;;;7.70;99.90;;;;;;5029316;28;20104;-73
2023/12/23 02:18:17;;;;;;;1999.90;999.90;;;7.70;99.90;;;;;;5033312;28;20030;-70
2023/12/23 02:20:50;;;;;;;1999.90;999.90;;;7.70;99.90;;;;;;5030611;28;20032;-71
2023/12/23 02:23:17;;;;;;;1999.90;999.90;;;7.70;99.90;;;;;;5026819;28;20030;-71
2023/12/23 02:25:44;;;;;;;;;;;7.70;99.90;;;;;;5027637;28;20033;-71
2023/12/23 02:28:11;;;;;;;1999.90;999.90;;;7.80;99.90;;;;;;5032715;28;19917;-71
2023/12/23 02:30:40;;;;;;;1999.90;999.90;;;7.80;99.90;;;;;;5031118;28;20029;-72
2023/12/23 02:33:06;;;;;;;1999.90;999.90;;;7.80;99.90;;;;;;5032205;28;20028;-71
2023/12/23 02:35:32;;;;;;;1999.90;999.90;;;7.90;99.90;;;;;;5033141;28;20033;-71
2023/12/23 02:37:58;;;;;;;1999.90;999.90;;;8.00;99.90;;;;;;5027786;28;20045;-71
2023/12/23 02:40:24;;;;;;;1999.90;999.90;;;8.10;99.90;;;;;;5029449;28;20040;-71
2023/12/23 02:42:49;;;;;;;1999.90;999.90;;;8.20;99.90;;;;;;5032930;28;20049;-71
2023/12/23 02:45:15;;;;;;;1999.90;999.90;;;8.40;99.90;;;;;;5026894;28;20042;-71
2023/12/23 02:47:41;;;;;;;1999.90;999.90;;;8.50;99.90;;;;;;5029332;28;20482;-70
2023/12/23 02:50:07;;;;;;;1999.90;999.90;;;8.60;99.90;;;;;;5031928;28;20033;-70
2023/12/23 02:52:32;;;;;;;1999.90;999.90;;;8.70;99.90;;;;;;5033397;28;20044;-72
2023/12/23 02:54:58;;;;;;;1999.90;999.90;;;8.80;99.90;;;;;;5024108;28;20274;-71
2023/12/23 02:57:24;;;;;;;1999.90;999.90;;;8.90;99.90;;;;;;5032835;28;20057;-71
2023/12/23 02:59:49;;;;;;;1999.90;999.90;;;9.00;99.90;;;;;;5031423;28;20033;-70
2023/12/23 03:02:15;;;;;;;1999.90;999.90;;;9.00;99.90;;;;;;5032367;28;20167;-71
2023/12/23 03:04:41;;;;;;;1999.90;999.90;;;9.10;99.90;;;;;;5032993;28;20095;-71
2023/12/23 03:07:06;;;;;;;1999.90;999.90;;;9.10;99.90;;;;;;5028686;28;20321;-70
2023/12/23 03:09:32;;;;;;;1999.90;999.90;;;9.10;99.90;;;;;;5028480;28;20105;-70
2023/12/23 03:11:58;;;;;;;1999.90;999.90;;;9.10;99.90;;;;;;5030665;28;20029;-71
2023/12/23 03:14:23;;;;;;;1999.90;999.90;;;9.20;99.90;;;;;;5032900;28;20033;-71
2023/12/23 03:16:49;;;;;;;1999.90;999.90;;;9.20;99.90;;;;;;5031294;28;20393;-70
2023/12/23 03:19:15;;;;;;;1999.90;999.90;;;9.20;99.90;;;;;;5030996;28;20040;-75
2023/12/23 03:21:48;;;;;;;1999.90;999.90;;;9.20;99.90;;;;;;5032874;28;20052;-71
2023/12/23 03:24:14;;;;;;;1999.90;999.90;;;9.30;99.90;;;;;;5030809;28;20033;-71
2023/12/23 03:26:39;;;;;;;1999.90;999.90;;;9.30;99.90;;;;;;5032805;28;20021;-71
2023/12/23 03:29:05;;;;;;;1999.90;999.90;;;9.30;99.90;;;;;;5031442;28;20732;-71
2023/12/23 03:31:33;;;;;;;1999.90;999.90;;;9.30;99.90;;;;;;5024525;28;20109;-70
2023/12/23 03:34:00;;;;;;;1999.90;999.90;;;9.30;99.90;;;;;;5032645;28;20412;-71
2023/12/23 03:36:27;;;;;;;1999.90;999.90;;;9.30;99.90;;;;;;5031280;28;20460;-71
2023/12/23 03:38:53;;;;;;;1999.90;999.90;;;9.40;99.90;;;;;;5033928;28;20056;-70
2023/12/23 03:41:19;;;;;;;1999.90;999.90;;;9.40;99.90;;;;;;5028238;28;20061;-71
2023/12/23 03:43:44;;;;;;;1999.90;999.90;;;9.50;99.90;;;;;;5028913;28;20417;-71
2023/12/23 03:46:10;;;;;;;1999.90;999.90;;;9.50;99.90;;;;;;5036307;28;20061;-71
2023/12/23 03:48:36;;;;;;;1999.90;999.90;;;9.50;99.90;;;;;;5032733;28;20030;-71
2023/12/23 03:51:02;;;;;;;1999.90;999.90;;;9.60;99.90;;;;;;5033928;28;20030;-71
2023/12/23 03:53:28;;;;;;;1999.90;999.90;;;9.70;99.90;;;;;;5025227;28;20022;-73
2023/12/23 03:55:53;;;;;;;1999.90;999.90;;;9.70;99.90;;;;;;5027484;28;20409;-71
2023/12/23 03:58:19;;;;;;;1999.90;999.90;;;9.70;99.90;;;;;;5032714;28;20021;-71
2023/12/23 04:00:45;;;;;;;1999.90;999.90;;;9.70;99.90;;;;;;5031059;28;20032;-71
2023/12/23 04:03:11;;;;;;;1999.90;999.90;;;9.70;99.90;;;;;;5034706;28;20037;-73
2023/12/23 04:05:37;;;;;;;1999.90;999.90;;;9.70;99.90;;;;;;5043093;28;20088;-70
2023/12/23 04:08:02;;;;;;;1999.90;999.90;;;9.60;99.90;;;;;;5035910;28;20032;-70
2023/12/23 04:10:28;;;;;;;1999.90;999.90;;;9.60;99.90;;;;;;5036692;28;20048;-71
2023/12/23 04:12:54;;;;;;;1999.90;999.90;;;9.60;99.90;;;;;;5038794;28;20120;-71
2023/12/23 04:15:19;;;;;;;1999.90;999.90;;;9.60;99.90;;;;;;5034194;28;20032;-71
2023/12/23 04:17:45;;;;;;;1999.90;999.90;;;9.60;99.90;;;;;;5038271;28;20022;-71
2023/12/23 04:20:11;;;;;;;1999.90;999.90;;;9.60;99.90;;;;;;5030329;28;20045;-72
2023/12/23 04:22:37;;;;;;;1999.90;999.90;;;9.70;99.90;;;;;;5036819;28;20396;-71
2023/12/23 04:25:03;;;;;;;1999.90;999.90;;;9.80;99.90;;;;;;5035444;28;20100;-71
2023/12/23 04:27:29;;;;;;;1999.90;999.90;;;9.70;99.90;;;;;;5034298;28;20035;-71
2023/12/23 04:29:54;;;;;;;1999.90;999.90;;;9.80;99.90;;;;;;5034970;28;20108;-71
2023/12/23 04:32:20;;;;;;;1999.90;999.90;;;9.80;99.90;;;;;;5035198;28;20078;-72
2023/12/23 04:34:46;;;;;;;1999.90;999.90;;;9.80;99.90;;;;;;5034867;28;20024;-71
2023/12/23 04:37:11;;;;;;;1999.90;999.90;;;9.80;99.90;;;;;;5035188;28;20064;-71
2023/12/23 04:39:37;;;;;;;1999.90;999.90;;;9.80;99.90;;;;;;5033470;28;20033;-71
2023/12/23 04:42:03;;;;;;;1999.90;999.90;;;9.90;99.90;;;;;;5034809;28;20052;-71
2023/12/23 04:44:30;;;;;;;1999.90;999.90;;;9.90;99.90;;;;;;5034839;28;20429;-71
2023/12/23 04:46:56;;;;;;;1999.90;999.90;;;9.90;99.90;;;;;;5034953;28;20035;-71
2023/12/23 04:49:23;;;;;;;1999.90;999.90;;;9.90;99.90;;;;;;5031344;28;20419;-71
2023/12/23 04:51:48;;;;;;;1999.90;999.90;;;10.00;99.90;;;;;;5034100;28;20034;-71
2023/12/23 04:54:14;;;;;;;1999.90;999.90;;;10.00;99.90;;;;;;5030479;28;20038;-71
2023/12/23 04:56:40;;;;;;;1999.90;999.90;;;10.00;99.90;;;;;;5034618;28;20031;-71
2023/12/23 04:59:06;;;;;;;1999.90;999.90;;;10.00;99.90;;;;;;5031161;28;20052;-71
2023/12/23 05:01:32;;;;;;;1999.90;999.90;;;10.00;99.90;;;;;;5033569;28;20461;-71
2023/12/23 05:03:58;;;;;;;1999.90;999.90;;;10.00;99.90;;;;;;5034778;28;20037;-71
2023/12/23 05:06:23;;;;;;;1999.90;999.90;;;10.00;99.90;;;;;;5034544;28;20029;-71
2023/12/23 05:08:49;;;;;;;1999.90;999.90;;;10.00;99.90;;;;;;5034350;28;20030;-72
2023/12/23 05:11:15;;;;;;;1999.90;999.90;;;10.00;99.90;;;;;;5033533;28;20025;-71
2023/12/23 05:13:40;;;;;;;1999.90;999.90;;;10.00;99.90;;;;;;5030825;28;20036;-71
2023/12/23 05:16:06;;;;;;;1999.90;999.90;;;10.10;99.90;;;;;;5034306;28;20049;-71
2023/12/23 05:18:32;;;;;;;1999.90;999.90;;;10.00;99.90;;;;;;5033504;28;20025;-71
2023/12/23 05:20:58;;;;;;;1999.90;999.90;;;10.00;99.90;;;;;;5032514;28;20037;-74
2023/12/23 05:23:24;;;;;;;1999.90;999.90;;;10.00;99.90;;;;;;5034432;28;20267;-71
2023/12/23 05:25:54;;;;;;;1999.90;999.90;;;10.00;99.90;;;;;;5029885;28;20029;-71
2023/12/23 05:28:21;;;;;;;1999.90;999.90;;;10.00;99.90;;;;;;5032580;28;20025;-71
2023/12/23 05:30:46;;;;;;;1999.90;999.90;;;10.00;99.90;;;;;;5033102;28;20041;-71
2023/12/23 05:33:12;;;;;;;1999.90;999.90;;;10.00;99.90;;;;;;5033828;28;20051;-72
2023/12/23 05:35:38;;;;;;;1999.90;999.90;;;9.90;99.90;;;;;;5032890;28;20091;-71
2023/12/23 05:38:04;;;;;;;1999.90;999.90;;;9.90;99.90;;;;;;5032962;28;20025;-71
2023/12/23 05:40:29;;;;;;;1999.90;999.90;;;9.90;99.90;;;;;;5033325;28;20025;-71
2023/12/23 05:42:55;;;;;;;1999.90;999.90;;;9.90;99.90;;;;;;5033439;28;20049;-72
2023/12/23 05:45:21;;;;;;;1999.90;999.90;;;9.90;99.90;;;;;;5034245;28;20128;-71
2023/12/23 05:47:49;;;;;;;1999.90;999.90;;;9.90;99.90;;;;;;5033679;28;20718;-71
2023/12/23 05:50:15;;;;;;;1999.90;999.90;;;9.90;99.90;;;;;;5032773;28;20044;-71
2023/12/23 05:52:41;;;;;;;1999.90;999.90;;;10.00;99.90;;;;;;5026313;28;20025;-71
2023/12/23 05:55:07;;;;;;;1999.90;999.90;;;9.90;99.90;;;;;;5030963;28;20417;-72
2023/12/23 05:57:33;;;;;;;1999.90;999.90;;;10.00;99.90;;;;;;5032954;28;20021;-72
2023/12/23 05:59:59;;;;;;;1999.90;999.90;;;10.00;99.90;;;;;;5032307;28;20371;-72
2023/12/23 06:02:24;;;;;;;1999.90;999.90;;;10.00;99.90;;;;;;5033455;28;20060;-72
2023/12/23 06:04:52;;;;;;;1999.90;999.90;;;10.00;99.90;;;;;;5032400;28;20025;-72
2023/12/23 06:07:17;;;;;;;1999.90;999.90;;;10.00;99.90;;;;;;5031169;28;20033;-72
2023/12/23 06:09:44;;;;;;;1999.90;999.90;;;10.00;99.90;;;;;;5030728;28;20029;-71
2023/12/23 06:12:09;;;;;;;1999.90;999.90;;;10.00;99.90;;;;;;5033690;28;20037;-71
2023/12/23 06:14:36;;;;;;;1999.90;999.90;;;10.10;99.90;;;;;;5033098;28;20086;-72
2023/12/23 06:17:02;;;;;;;1999.90;999.90;;;10.10;99.90;;;;;;5033428;28;20022;-72
2023/12/23 06:19:27;;;;;;;1999.90;999.90;;;10.10;99.90;;;;;;5032684;28;20044;-71
2023/12/23 06:21:53;;;;;;;1999.90;999.90;;;10.00;99.90;;;;;;5033362;28;20093;-74
2023/12/23 06:24:19;;;;;;;1999.90;999.90;;;10.10;99.90;;;;;;5026173;28;20365;-71
2023/12/23 06:26:44;;;;;;;1999.90;999.90;;;10.10;99.90;;;;;;5033214;28;20040;-72
2023/12/23 06:29:10;;;;;;;1999.90;999.90;;;10.10;99.90;;;;;;5033361;28;20048;-71
2023/12/23 06:31:36;;;;;;;1999.90;999.90;;;10.00;99.90;;;;;;5032655;28;20064;-71
2023/12/23 06:34:01;;;;;;;1999.90;999.90;;;10.00;99.90;;;;;;5032945;28;20573;-71
2023/12/23 06:36:27;;;;;;;1999.90;999.90;;;10.00;99.90;;;;;;5039783;28;20032;-71
2023/12/23 06:38:53;;;;;;;1999.90;999.90;;;10.00;99.90;;;;;;5032784;28;20379;-71
2023/12/23 06:41:19;;;;;;;1999.90;999.90;;;10.10;99.90;;;;;;5027965;28;20042;-72
2023/12/23 06:43:45;;;;;;;1999.90;999.90;;;10.00;99.90;;;;;;5022526;28;20105;-72
2023/12/23 06:46:11;;;;;;;1999.90;999.90;;;10.10;99.90;;;;;;5022838;28;20037;-71
2023/12/23 06:48:38;;;;;;;1999.90;999.90;;;10.10;99.90;;;;;;5033935;28;20027;-71
2023/12/23 06:51:04;;;;;;;1999.90;999.90;;;10.20;99.90;;;;;;5035067;28;20262;-71
2023/12/23 06:53:30;;;;;;;1999.90;999.90;;;10.20;99.90;;;;;;5034035;28;20033;-71
2023/12/23 06:55:56;;;;;;;1999.90;999.90;;;10.20;99.90;;;;;;5027804;28;20028;-71
2023/12/23 06:58:27;;;;;;;1999.90;999.90;;;10.20;99.90;;;;;;5039143;28;20032;-71
2023/12/23 07:00:52;;;;;;;1999.90;999.90;;;10.20;99.90;;;;;;5029935;28;20036;-71
2023/12/23 07:03:18;;;;;;;1999.90;999.90;;;10.30;99.90;;;;;;5027431;28;20405;-71
2023/12/23 07:05:44;;;;;;;1999.90;999.90;;;10.30;99.90;;;;;;5035726;28;20021;-71
2023/12/23 07:08:09;;;;;;;1999.90;999.90;;;10.40;99.90;;;;;;5028835;28;20476;-71
2023/12/23 07:10:35;;;;;;;1999.90;999.90;;;10.40;99.90;;;;;;5034025;28;20025;-70
2023/12/23 07:13:01;;;;;;;1999.90;999.90;;;10.40;99.90;;;;;;5034110;28;20508;-71
2023/12/23 07:15:26;;;;;;;1999.90;999.90;;;10.40;99.90;;;;;;5030233;28;20026;-71
2023/12/23 07:17:52;;;;;;;1999.90;999.90;;;10.50;99.90;;;;;;5033481;28;20021;-71
2023/12/23 07:20:18;;;;;;;1999.90;999.90;;;10.50;99.90;;;;;;5037416;28;20032;-71
2023/12/23 07:22:43;;;;;;;1999.90;999.90;;;10.50;99.90;;;;;;5038795;28;20299;-72
2023/12/23 07:25:09;;;;;;;1999.90;999.90;;;10.50;99.90;;;;;;5036793;28;20040;-70
2023/12/23 07:27:35;;;;;;;1999.90;999.90;;;10.50;99.90;;;;;;5035118;28;20033;-70
2023/12/23 07:30:01;;;;;;;1999.90;999.90;;;10.50;99.90;;;;;;5035169;28;20026;-70
2023/12/23 07:32:27;;;;;;;1999.90;999.90;;;10.50;99.90;;;;;;5032196;28;20048;-73
2023/12/23 07:34:52;;;;;;;1999.90;999.90;;;10.50;99.90;;;;;;5036390;28;20021;-71
2023/12/23 07:37:18;;;;;;;1999.90;999.90;;;10.50;99.90;;;;;;5036637;28;20100;-70
2023/12/23 07:39:44;;;;;;;1999.90;999.90;;;10.50;99.90;;;;;;5034516;28;20030;-70
2023/12/23 07:42:09;;;;;;;1999.90;999.90;;;10.50;99.90;;;;;;5036604;28;20309;-71
2023/12/23 07:44:36;;;;;;;1999.90;999.90;;;10.50;99.90;;;;;;5035985;28;20033;-70
2023/12/23 07:47:05;;;;;;;1999.90;999.90;;;10.50;99.90;;;;;;5033640;28;20089;-70
2023/12/23 07:49:32;;;;;;;1999.90;999.90;;;10.50;99.90;;;;;;5036187;28;20040;-71
2023/12/23 07:51:58;;;;;;;1999.90;999.90;;;10.60;99.90;;;;;;5034518;28;20091;-71
2023/12/23 07:54:24;;;;;;;1999.90;999.90;;;10.50;99.90;;;;;;5035805;28;20036;-71
2023/12/23 07:56:50;;;;;;;1999.90;999.90;;;10.60;99.90;;;;;;5035785;28;20025;-71
2023/12/23 07:59:15;;;;;;;1999.90;999.90;;;10.60;99.90;;;;;;5032124;28;20049;-71
2023/12/23 08:01:44;;;;;;;1999.90;999.90;;;10.60;99.90;;;;;;5035652;28;20099;-71
2023/12/23 08:04:10;;;;;;;1999.90;999.90;;;10.60;99.90;;;;;;5033422;28;20034;-71
2023/12/23 08:06:36;;;;;;;1999.90;999.90;;;10.60;99.90;;;;;;5035575;28;20510;-71
2023/12/23 08:09:03;;;;;;;1999.90;999.90;;;10.60;99.90;;;;;;5026303;28;20033;-71
2023/12/23 08:11:29;;;;;;;1999.90;999.90;;;10.70;99.90;;;;;;5035700;28;20083;-71
2023/12/23 08:13:55;;;;;;;1999.90;999.90;;;10.70;99.90;;;;;;5026749;28;20025;-71
2023/12/23 08:16:20;;;;;;;1999.90;999.90;;;10.70;99.90;;;;;;5036091;28;20022;-71
2023/12/23 08:18:46;;;;;;;1999.90;999.90;;;10.70;99.90;;;;;;5035224;28;20021;-71
2023/12/23 08:21:12;;;;;;;1999.90;999.90;;;10.60;99.90;;;;;;5035796;28;20327;-71
2023/12/23 08:23:37;;;;;;;1999.90;999.90;;;10.60;99.90;;;;;;5035743;28;20116;-73
2023/12/23 08:26:03;;;;;;;1999.90;999.90;;;10.60;99.90;;;;;;5036466;28;20432;-70
2023/12/23 08:28:29;;;;;;;1999.90;999.90;;;10.70;99.90;;;;;;5039880;28;20103;-71
2023/12/23 08:30:55;;;;;;;1999.90;999.90;;;10.70;99.90;;;;;;5027016;28;20028;-71
2023/12/23 08:33:21;;;;;;;1999.90;999.90;;;10.60;99.90;;;;;;5035655;28;20234;-70
2023/12/23 08:35:47;;;;;;;1999.90;999.90;;;10.60;99.90;;;;;;5032662;28;20101;-71
2023/12/23 08:38:13;;;;;;;1999.90;999.90;;;10.60;99.90;;;;;;5024831;28;20030;-71
2023/12/23 08:40:38;;;;;;;1999.90;999.90;;;10.60;99.90;;;;;;5037723;28;20021;-71
2023/12/23 08:43:04;;;;;;;1999.90;999.90;;;10.60;99.90;;;;;;5034499;28;20064;-71
2023/12/23 08:45:30;;;;;;;1999.90;999.90;;;10.60;99.90;;;;;;5029462;28;20026;-71
2023/12/23 08:47:56;;;;;;;1999.90;999.90;;;10.70;99.90;;;;;;5037320;28;20029;-71
2023/12/23 08:50:22;;;;;;;1999.90;999.90;;;10.70;99.90;;;;;;5044836;28;20113;-71
2023/12/23 08:52:49;;;;;;;1999.90;999.90;;;10.70;99.90;;;;;;5031166;28;20037;-71
2023/12/23 08:55:15;;;;;;;1999.90;999.90;;;10.70;99.90;;;;;;5038679;28;20117;-71
2023/12/23 08:57:41;;;;;;;1999.90;999.90;;;10.70;99.90;;;;;;5044486;28;20383;-70
2023/12/23 09:00:07;;;;;;;1999.90;999.90;;;10.70;99.90;;;;;;5043713;28;20037;-71
2023/12/23 09:02:34;;;;;;;1999.90;999.90;;;10.70;99.90;;;;;;5024372;28;20025;-70
2023/12/23 09:05:00;;;;;;;1999.90;999.90;;;10.70;99.90;;;;;;5041033;28;20043;-70
2023/12/23 09:07:25;;;;;;;1999.90;999.90;;;10.60;99.90;;;;;;5034201;28;20404;-71
2023/12/23 09:09:51;;;;;;;1999.90;999.90;;;10.60;99.90;;;;;;5034690;28;20030;-70
2023/12/23 09:12:19;;;;;;;1999.90;999.90;;;10.60;99.90;;;;;;5032603;28;20121;-71
2023/12/23 09:14:45;;;;;;;1999.90;999.90;;;10.60;99.90;;;;;;5033544;28;20319;-70
2023/12/23 09:17:11;;;;;;;1999.90;999.90;;;10.70;99.90;;;;;;5035387;28;20030;-71
2023/12/23 09:19:37;;;;;;;1999.90;999.90;;;10.70;99.90;;;;;;5037318;28;20124;-70
2023/12/23 09:22:03;;;;;;;1999.90;999.90;;;10.70;99.90;;;;;;5037619;28;20171;-70
2023/12/23 09:24:28;;;;;;;1999.90;999.90;;;10.70;99.90;;;;;;5034527;28;20033;-74
2023/12/23 09:26:54;;;;;;;1999.90;999.90;;;10.70;99.90;;;;;;5031865;28;20410;-71
2023/12/23 09:29:20;;;;;;;1999.90;999.90;;;10.70;99.90;;;;;;5037412;28;20056;-71
2023/12/23 09:31:45;;;;;;;1999.90;999.90;;;10.70;99.90;;;;;;5030177;28;20022;-70
2023/12/23 09:34:11;;;;;;;1999.90;999.90;;;10.70;99.90;;;;;;5033302;28;20452;-70
2023/12/23 09:36:37;;;;;;;1999.90;999.90;;;10.70;99.90;;;;;;5034876;28;20394;-70
2023/12/23 09:39:04;;;;;;;1999.90;999.90;;;10.70;99.90;;;;;;5033186;28;20048;-72
2023/12/23 09:41:32;;;;;;;1999.90;999.90;;;10.70;99.90;;;;;;5030379;28;20033;-71
2023/12/23 09:43:58;;;;;;;1999.90;999.90;;;10.80;99.90;;;;;;5027446;28;20042;-71
2023/12/23 09:46:24;;;;;;;1999.90;999.90;;;10.80;99.90;;;;;;5037067;28;20022;-70
2023/12/23 09:48:50;;;;;;;1999.90;999.90;;;10.80;99.90;;;;;;5039051;28;20034;-70
2023/12/23 09:51:19;;;;;;;1999.90;999.90;;;10.80;99.90;;;;;;5042478;28;20436;-70
2023/12/23 09:53:47;;;;;;;1999.90;999.90;;;10.80;99.90;;;;;;5027343;28;20030;-70
2023/12/23 09:56:13;;;;;;;1999.90;999.90;;;10.80;99.90;;;;;;5026833;28;20041;-70
2023/12/23 09:58:41;;;;;;;1999.90;999.90;;;10.90;99.90;;;;;;5031721;28;20024;-73
2023/12/23 10:01:07;;;;;;;1999.90;999.90;;;10.80;99.90;;;;;;5033161;28;20028;-70
2023/12/23 10:03:32;;;;;;;1999.90;999.90;;;10.90;99.90;;;;;;5043314;28;20034;-71
2023/12/23 10:06:01;;;;;;;1999.90;999.90;;;10.90;99.90;;;;;;5032560;28;20156;-70
2023/12/23 10:08:28;;;;;;;1999.90;999.90;;;10.90;99.90;;;;;;5029071;28;20035;-70
2023/12/23 10:10:54;;;;;;;1999.90;999.90;;;11.00;99.90;;;;;;5030656;28;21425;-70
2023/12/23 10:13:20;;;;;;;1999.90;999.90;;;11.00;99.90;;;;;;5033717;28;20116;-70
2023/12/23 10:15:46;;;;;;;1999.90;999.90;;;11.00;99.90;;;;;;5036671;28;20115;-70
2023/12/23 10:18:12;;;;;;;1999.90;999.90;;;11.00;99.90;;;;;;5038831;28;20108;-71
2023/12/23 10:20:41;;;;;;;1999.90;999.90;;;11.00;99.90;;;;;;5042253;28;20029;-70
2023/12/23 10:23:09;;;;;;;1999.90;999.90;;;11.00;99.90;;;;;;5041841;28;20040;-72
2023/12/23 10:25:34;;;;;;;1999.90;999.90;;;11.00;99.90;;;;;;5038355;28;20098;-70
2023/12/23 10:28:03;;;;;;;1999.90;999.90;;;11.00;99.90;;;;;;5031601;28;20092;-70
2023/12/23 10:30:33;;;;;;;1999.90;999.90;;;11.10;99.90;;;;;;5038072;28;20320;-71
2023/12/23 10:33:05;;;;;;;1999.90;999.90;;;11.10;99.90;;;;;;5031777;28;20104;-70
2023/12/23 10:35:37;;;;;;;1999.90;999.90;;;11.20;99.90;;;;;;5042945;28;20016;-70
2023/12/23 10:38:08;;;;;;;1999.90;999.90;;;11.20;99.90;;;;;;5031815;28;20099;-70
2023/12/23 10:40:34;;;;;;;1999.90;999.90;;;11.20;99.90;;;;;;5039953;28;20022;-70
2023/12/23 10:43:02;;;;;;;1999.90;999.90;;;11.20;99.90;;;;;;5029365;28;20108;-71
2023/12/23 10:45:28;;;;;;;1999.90;999.90;;;11.20;99.90;;;;;;5041204;28;20024;-71
2023/12/23 10:47:54;;;;;;;1999.90;999.90;;;11.20;99.90;;;;;;5032391;28;20360;-70
2023/12/23 10:50:20;;;;;;;1999.90;999.90;;;11.20;99.90;;;;;;5030448;28;20044;-70
2023/12/23 10:52:47;;;;;;;1999.90;999.90;;;11.20;99.90;;;;;;5033082;28;20033;-71
2023/12/23 10:55:14;;;;;;;1999.90;999.90;;;11.20;99.90;;;;;;5028192;28;20029;-70
2023/12/23 10:57:41;;;;;;;1999.90;999.90;;;11.20;99.90;;;;;;5030499;28;20029;-70
2023/12/23 11:00:09;;;;;;;1999.90;999.90;;;11.20;99.90;;;;;;5028910;28;20498;-70
2023/12/23 11:02:37;;;;;;;1999.90;999.90;;;11.20;99.90;;;;;;5029566;28;20036;-70
2023/12/23 11:05:07;;;;;;;1999.90;999.90;;;11.20;99.90;;;;;;5025848;28;20018;-71
2023/12/23 11:07:45;;;;;;;1999.90;999.90;;;11.20;99.90;;;;;;5038121;28;20098;-71
2023/12/23 11:10:12;;;;;;;1999.90;999.90;;;11.20;99.90;;;;;;5032011;28;20044;-70
2023/12/23 11:12:39;;;;;;;1999.90;999.90;;;11.20;99.90;;;;;;5028135;28;20025;-70
2023/12/23 11:15:05;;;;;;;1999.90;999.90;;;11.30;99.90;;;;;;5025727;28;20037;-70
2023/12/23 11:17:31;;;;;;;1999.90;999.90;;;11.30;99.90;;;;;;5033334;28;20036;-70
2023/12/23 11:20:02;;;;;;;1999.90;999.90;;;11.30;99.90;;;;;;5027132;28;20108;-70
2023/12/23 11:22:29;;;;;;;1999.90;999.90;;;11.30;99.90;;;;;;5036938;28;20105;-71
2023/12/23 11:24:55;;;;;;;1999.90;999.90;;;11.30;99.90;;;;;;5029028;28;20025;-70
2023/12/23 11:27:35;;;;;;;1999.90;999.90;;;11.30;99.90;;;;;;5027936;28;20417;-72
2023/12/23 11:30:07;;;;;;;1999.90;999.90;;;11.30;99.90;;;;;;5025981;28;20120;-70
2023/12/23 11:32:39;;;;;;;1999.90;999.90;;;11.40;99.90;;;;;;5033270;28;20052;-71
2023/12/23 11:35:09;;;;;;;1999.90;999.90;;;11.40;99.90;;;;;;5028259;28;20104;-70
2023/12/23 11:38:00;;;;;;;1999.90;999.90;;;11.40;99.90;;;;;;5021568;28;20026;-71
2023/12/23 11:40:29;;;;;;;1999.90;999.90;;;11.40;99.90;;;;;;5025891;28;20475;-70
2023/12/23 11:42:56;;;;;;;1999.90;999.90;;;11.40;99.90;;;;;;5028516;28;20069;-72
2023/12/23 11:45:22;;;;;;;1999.90;999.90;;;11.40;99.90;;;;;;5034951;28;20041;-70
2023/12/23 11:47:50;;;;;;;1999.90;999.90;;;11.40;99.90;;;;;;5038297;28;20030;-70
2023/12/23 11:50:16;;;;;;;1999.90;999.90;;;11.40;99.90;;;;;;5031223;28;20355;-71
2023/12/23 11:52:44;;;;;;;1999.90;999.90;;;11.40;99.90;;;;;;5031053;28;20125;-70
2023/12/23 11:55:10;;;;;;;1999.90;999.90;;;11.50;99.90;;;;;;5029032;28;20042;-70
2023/12/23 11:57:36;;;;;;;1999.90;999.90;;;11.50;99.90;;;;;;5034278;28;20025;-70
2023/12/23 12:00:05;;;;;;;1999.90;999.90;;;11.50;99.90;;;;;;5025582;28;20392;-70